sensor_id;sensor_type;location;lat;lon;timestamp;temperature;humidity
51982;DHT22;37998;53.416;6.730;2022-11-20T00:00:03;1.80;99.90
51982;DHT22;37998;53.416;6.730;2022-11-20T00:02:29;1.80;99.90
51982;DHT22;37998;53.416;6.730;2022-11-20T00:04:55;1.80;99.90
51982;DHT22;37998;53.416;6.730;2022-11-20T00:07:21;1.80;99.90
51982;DHT22;37998;53.416;6.730;2022-11-20T00:09:46;1.80;99.90
51982;DHT22;37998;53.416;6.730;2022-11-20T00:12:12;1.90;99.90
51982;DHT22;37998;53.416;6.730;2022-11-20T00:14:37;1.90;99.90
51982;DHT22;37998;53.416;6.730;2022-11-20T00:17:03;1.90;99.90
51982;DHT22;37998;53.416;6.730;2022-11-20T00:19:29;1.90;99.90
51982;DHT22;37998;53.416;6.730;2022-11-20T00:21:55;1.90;99.90
51982;DHT22;37998;53.416;6.730;2022-11-20T00:24:21;1.90;99.90
51982;DHT22;37998;53.416;6.730;2022-11-20T00:26:46;1.90;99.90
51982;DHT22;37998;53.416;6.730;2022-11-20T00:29:12;1.90;99.90
51982;DHT22;37998;53.416;6.730;2022-11-20T00:31:38;1.90;99.90
51982;DHT22;37998;53.416;6.730;2022-11-20T00:34:03;1.80;99.90
51982;DHT22;37998;53.416;6.730;2022-11-20T00:36:32;1.80;99.90
51982;DHT22;37998;53.416;6.730;2022-11-20T00:38:59;2.00;99.90
51982;DHT22;37998;53.416;6.730;2022-11-20T00:41:26;1.80;99.90
51982;DHT22;37998;53.416;6.730;2022-11-20T00:43:53;1.90;99.90
51982;DHT22;37998;53.416;6.730;2022-11-20T00:46:21;1.80;99.90
51982;DHT22;37998;53.416;6.730;2022-11-20T00:48:48;1.80;99.90
51982;DHT22;37998;53.416;6.730;2022-11-20T00:51:16;1.90;99.90
51982;DHT22;37998;53.416;6.730;2022-11-20T00:53:42;1.80;99.90
51982;DHT22;37998;53.416;6.730;2022-11-20T00:56:11;1.80;99.90
51982;DHT22;37998;53.416;6.730;2022-11-20T00:58:38;1.70;99.90
51982;DHT22;37998;53.416;6.730;2022-11-20T01:01:06;1.60;99.90
51982;DHT22;37998;53.416;6.730;2022-11-20T01:03:34;1.60;99.90
51982;DHT22;37998;53.416;6.730;2022-11-20T01:06:01;1.50;99.90
51982;DHT22;37998;53.416;6.730;2022-11-20T01:08:32;1.50;99.90
51982;DHT22;37998;53.416;6.730;2022-11-20T01:11:03;1.50;99.90
51982;DHT22;37998;53.416;6.730;2022-11-20T01:13:30;1.50;99.90
51982;DHT22;37998;53.416;6.730;2022-11-20T01:16:07;1.50;99.90
51982;DHT22;37998;53.416;6.730;2022-11-20T01:18:34;1.60;99.90
51982;DHT22;37998;53.416;6.730;2022-11-20T01:21:01;1.60;99.90
51982;DHT22;37998;53.416;6.730;2022-11-20T01:23:31;1.60;99.90
51982;DHT22;37998;53.416;6.730;2022-11-20T01:25:56;1.70;99.90
51982;DHT22;37998;53.416;6.730;2022-11-20T01:28:22;1.80;99.90
51982;DHT22;37998;53.416;6.730;2022-11-20T01:30:47;1.80;99.90
51982;DHT22;37998;53.416;6.730;2022-11-20T01:33:13;1.90;99.90
51982;DHT22;37998;53.416;6.730;2022-11-20T01:35:39;1.90;99.90
51982;DHT22;37998;53.416;6.730;2022-11-20T01:38:04;1.90;99.90
51982;DHT22;37998;53.416;6.730;2022-11-20T01:40:30;1.90;99.90
51982;DHT22;37998;53.416;6.730;2022-11-20T01:43:10;1.90;99.90
51982;DHT22;37998;53.416;6.730;2022-11-20T01:45:58;1.90;99.90
51982;DHT22;37998;53.416;6.730;2022-11-20T01:48:28;1.90;99.90
51982;DHT22;37998;53.416;6.730;2022-11-20T01:50:55;1.90;99.90
51982;DHT22;37998;53.416;6.730;2022-11-20T01:53:25;1.80;99.90
51982;DHT22;37998;53.416;6.730;2022-11-20T01:55:55;1.70;99.90
51982;DHT22;37998;53.416;6.730;2022-11-20T01:58:27;1.70;99.90
51982;DHT22;37998;53.416;6.730;2022-11-20T02:00:54;1.60;99.90
51982;DHT22;37998;53.416;6.730;2022-11-20T02:03:20;1.50;99.90
51982;DHT22;37998;53.416;6.730;2022-11-20T02:05:51;1.50;99.90
51982;DHT22;37998;53.416;6.730;2022-11-20T02:08:19;1.50;99.90
51982;DHT22;37998;53.416;6.730;2022-11-20T02:10:45;1.50;99.90
51982;DHT22;37998;53.416;6.730;2022-11-20T02:13:11;1.50;99.90
51982;DHT22;37998;53.416;6.730;2022-11-20T02:15:55;1.60;99.90
51982;DHT22;37998;53.416;6.730;2022-11-20T02:18:22;1.50;99.90
51982;DHT22;37998;53.416;6.730;2022-11-20T02:20:53;1.40;99.90
51982;DHT22;37998;53.416;6.730;2022-11-20T02:23:36;1.40;99.90
51982;DHT22;37998;53.416;6.730;2022-11-20T02:26:06;1.40;99.90
51982;DHT22;37998;53.416;6.730;2022-11-20T02:28:32;1.40;99.90
51982;DHT22;37998;53.416;6.730;2022-11-20T02:30:58;1.40;99.90
51982;DHT22;37998;53.416;6.730;2022-11-20T02:33:24;1.50;99.90
51982;DHT22;37998;53.416;6.730;2022-11-20T02:35:49;1.50;99.90
51982;DHT22;37998;53.416;6.730;2022-11-20T02:38:15;1.50;99.90
51982;DHT22;37998;53.416;6.730;2022-11-20T02:40:41;1.50;99.90
51982;DHT22;37998;53.416;6.730;2022-11-20T02:43:08;1.50;99.90
51982;DHT22;37998;53.416;6.730;2022-11-20T02:45:34;1.50;99.90
51982;DHT22;37998;53.416;6.730;2022-11-20T02:48:00;1.40;99.90
51982;DHT22;37998;53.416;6.730;2022-11-20T02:50:26;1.40;99.90
51982;DHT22;37998;53.416;6.730;2022-11-20T02:52:52;1.40;99.90
51982;DHT22;37998;53.416;6.730;2022-11-20T02:55:17;1.30;99.90
51982;DHT22;37998;53.416;6.730;2022-11-20T02:57:43;1.30;99.90
51982;DHT22;37998;53.416;6.730;2022-11-20T03:00:09;1.30;99.90
51982;DHT22;37998;53.416;6.730;2022-11-20T03:02:35;1.30;99.90
51982;DHT22;37998;53.416;6.730;2022-11-20T03:05:00;1.30;99.90
51982;DHT22;37998;53.416;6.730;2022-11-20T03:07:26;1.40;99.90
51982;DHT22;37998;53.416;6.730;2022-11-20T03:09:52;1.40;99.90
51982;DHT22;37998;53.416;6.730;2022-11-20T03:12:17;1.50;99.90
51982;DHT22;37998;53.416;6.730;2022-11-20T03:14:43;1.50;99.90
51982;DHT22;37998;53.416;6.730;2022-11-20T03:17:08;1.50;99.90
51982;DHT22;37998;53.416;6.730;2022-11-20T03:19:34;1.50;99.90
51982;DHT22;37998;53.416;6.730;2022-11-20T03:22:00;1.60;99.90
51982;DHT22;37998;53.416;6.730;2022-11-20T03:24:26;1.60;99.90
51982;DHT22;37998;53.416;6.730;2022-11-20T03:26:52;1.70;99.90
51982;DHT22;37998;53.416;6.730;2022-11-20T03:29:18;1.70;99.90
51982;DHT22;37998;53.416;6.730;2022-11-20T03:31:43;1.80;99.90
51982;DHT22;37998;53.416;6.730;2022-11-20T03:34:10;1.80;99.90
51982;DHT22;37998;53.416;6.730;2022-11-20T03:36:40;1.90;99.90
51982;DHT22;37998;53.416;6.730;2022-11-20T03:39:06;1.90;99.90
51982;DHT22;37998;53.416;6.730;2022-11-20T03:41:36;1.90;99.90
51982;DHT22;37998;53.416;6.730;2022-11-20T03:44:04;1.90;99.90
51982;DHT22;37998;53.416;6.730;2022-11-20T03:46:30;2.00;99.90
51982;DHT22;37998;53.416;6.730;2022-11-20T03:48:56;2.00;99.90
51982;DHT22;37998;53.416;6.730;2022-11-20T03:51:26;1.30;99.90
51982;DHT22;37998;53.416;6.730;2022-11-20T03:53:54;1.90;99.90
51982;DHT22;37998;53.416;6.730;2022-11-20T03:56:24;1.90;99.90
51982;DHT22;37998;53.416;6.730;2022-11-20T03:58:50;1.90;99.90
51982;DHT22;37998;53.416;6.730;2022-11-20T04:01:18;1.80;99.90
51982;DHT22;37998;53.416;6.730;2022-11-20T04:03:44;1.80;99.90
51982;DHT22;37998;53.416;6.730;2022-11-20T04:06:33;1.80;99.90
51982;DHT22;37998;53.416;6.730;2022-11-20T04:08:58;1.70;99.90
51982;DHT22;37998;53.416;6.730;2022-11-20T04:11:29;1.60;99.90
51982;DHT22;37998;53.416;6.730;2022-11-20T04:13:57;1.60;99.90
51982;DHT22;37998;53.416;6.730;2022-11-20T04:16:24;1.50;99.90
51982;DHT22;37998;53.416;6.730;2022-11-20T04:18:54;1.50;99.90
51982;DHT22;37998;53.416;6.730;2022-11-20T04:21:20;1.50;99.90
51982;DHT22;37998;53.416;6.730;2022-11-20T04:23:46;1.40;99.90
51982;DHT22;37998;53.416;6.730;2022-11-20T04:26:12;1.40;99.90
51982;DHT22;37998;53.416;6.730;2022-11-20T04:28:38;1.50;99.90
51982;DHT22;37998;53.416;6.730;2022-11-20T04:31:16;1.50;99.90
51982;DHT22;37998;53.416;6.730;2022-11-20T04:33:42;1.40;99.90
51982;DHT22;37998;53.416;6.730;2022-11-20T04:38:38;1.40;99.90
51982;DHT22;37998;53.416;6.730;2022-11-20T04:41:06;1.30;99.90
51982;DHT22;37998;53.416;6.730;2022-11-20T04:43:32;1.50;99.90
51982;DHT22;37998;53.416;6.730;2022-11-20T04:45:59;1.30;99.90
51982;DHT22;37998;53.416;6.730;2022-11-20T04:48:26;1.20;99.90
51982;DHT22;37998;53.416;6.730;2022-11-20T04:50:52;1.20;99.90
51982;DHT22;37998;53.416;6.730;2022-11-20T04:53:19;1.20;99.90
51982;DHT22;37998;53.416;6.730;2022-11-20T04:55:45;1.20;99.90
51982;DHT22;37998;53.416;6.730;2022-11-20T04:58:11;1.20;99.90
51982;DHT22;37998;53.416;6.730;2022-11-20T05:00:37;1.70;99.90
51982;DHT22;37998;53.416;6.730;2022-11-20T05:03:03;1.20;99.90
51982;DHT22;37998;53.416;6.730;2022-11-20T05:05:29;1.20;99.90
51982;DHT22;37998;53.416;6.730;2022-11-20T05:07:58;1.20;99.90
51982;DHT22;37998;53.416;6.730;2022-11-20T05:10:25;1.20;99.90
51982;DHT22;37998;53.416;6.730;2022-11-20T05:12:51;1.30;99.90
51982;DHT22;37998;53.416;6.730;2022-11-20T05:15:17;0.80;99.90
51982;DHT22;37998;53.416;6.730;2022-11-20T05:17:50;1.30;99.90
51982;DHT22;37998;53.416;6.730;2022-11-20T05:20:17;1.30;99.90
51982;DHT22;37998;53.416;6.730;2022-11-20T05:22:43;1.30;99.90
51982;DHT22;37998;53.416;6.730;2022-11-20T05:25:09;1.40;99.90
51982;DHT22;37998;53.416;6.730;2022-11-20T05:27:34;1.40;99.90
51982;DHT22;37998;53.416;6.730;2022-11-20T05:30:00;1.40;99.90
51982;DHT22;37998;53.416;6.730;2022-11-20T05:32:25;1.40;99.90
51982;DHT22;37998;53.416;6.730;2022-11-20T05:34:52;1.50;99.90
51982;DHT22;37998;53.416;6.730;2022-11-20T05:37:18;1.60;99.90
51982;DHT22;37998;53.416;6.730;2022-11-20T05:39:43;1.80;99.90
51982;DHT22;37998;53.416;6.730;2022-11-20T05:42:09;1.70;99.90
51982;DHT22;37998;53.416;6.730;2022-11-20T05:44:53;1.70;99.90
51982;DHT22;37998;53.416;6.730;2022-11-20T05:47:19;1.80;99.90
51982;DHT22;37998;53.416;6.730;2022-11-20T05:49:44;1.80;99.90
51982;DHT22;37998;53.416;6.730;2022-11-20T05:52:10;1.80;99.90
51982;DHT22;37998;53.416;6.730;2022-11-20T05:54:36;1.90;99.90
51982;DHT22;37998;53.416;6.730;2022-11-20T05:57:01;1.80;99.90
51982;DHT22;37998;53.416;6.730;2022-11-20T05:59:27;1.70;99.90
51982;DHT22;37998;53.416;6.730;2022-11-20T06:01:53;1.60;99.90
51982;DHT22;37998;53.416;6.730;2022-11-20T06:04:18;1.60;99.90
51982;DHT22;37998;53.416;6.730;2022-11-20T06:06:44;1.60;99.90
51982;DHT22;37998;53.416;6.730;2022-11-20T06:09:09;1.60;99.90
51982;DHT22;37998;53.416;6.730;2022-11-20T06:11:36;1.70;99.90
51982;DHT22;37998;53.416;6.730;2022-11-20T06:14:02;1.70;99.90
51982;DHT22;37998;53.416;6.730;2022-11-20T06:16:28;1.70;99.90
51982;DHT22;37998;53.416;6.730;2022-11-20T06:18:53;2.20;99.90
51982;DHT22;37998;53.416;6.730;2022-11-20T06:21:20;1.80;99.90
51982;DHT22;37998;53.416;6.730;2022-11-20T06:23:47;1.70;99.90
51982;DHT22;37998;53.416;6.730;2022-11-20T06:26:18;1.80;99.90
51982;DHT22;37998;53.416;6.730;2022-11-20T06:28:44;1.80;99.90
51982;DHT22;37998;53.416;6.730;2022-11-20T06:31:12;1.80;99.90
51982;DHT22;37998;53.416;6.730;2022-11-20T06:33:38;1.80;99.90
51982;DHT22;37998;53.416;6.730;2022-11-20T06:36:04;1.80;99.90
51982;DHT22;37998;53.416;6.730;2022-11-20T06:38:30;1.80;99.90
51982;DHT22;37998;53.416;6.730;2022-11-20T06:40:56;1.80;99.90
51982;DHT22;37998;53.416;6.730;2022-11-20T06:43:22;1.80;99.90
51982;DHT22;37998;53.416;6.730;2022-11-20T06:45:54;1.90;99.90
51982;DHT22;37998;53.416;6.730;2022-11-20T06:48:21;1.90;99.90
51982;DHT22;37998;53.416;6.730;2022-11-20T06:50:47;2.00;99.90
51982;DHT22;37998;53.416;6.730;2022-11-20T06:53:12;2.00;99.90
51982;DHT22;37998;53.416;6.730;2022-11-20T06:55:42;2.00;99.90
51982;DHT22;37998;53.416;6.730;2022-11-20T06:58:09;2.10;99.90
51982;DHT22;37998;53.416;6.730;2022-11-20T07:00:34;1.90;99.90
51982;DHT22;37998;53.416;6.730;2022-11-20T07:03:04;1.90;99.90
51982;DHT22;37998;53.416;6.730;2022-11-20T07:05:30;1.80;99.90
51982;DHT22;37998;53.416;6.730;2022-11-20T07:07:56;1.80;99.90
51982;DHT22;37998;53.416;6.730;2022-11-20T07:10:22;1.70;99.90
51982;DHT22;37998;53.416;6.730;2022-11-20T07:12:52;1.70;99.90
51982;DHT22;37998;53.416;6.730;2022-11-20T07:15:19;1.70;99.90
51982;DHT22;37998;53.416;6.730;2022-11-20T07:17:45;1.70;99.90
51982;DHT22;37998;53.416;6.730;2022-11-20T07:20:11;1.60;99.90
51982;DHT22;37998;53.416;6.730;2022-11-20T07:22:37;1.60;99.90
51982;DHT22;37998;53.416;6.730;2022-11-20T07:25:03;1.60;99.90
51982;DHT22;37998;53.416;6.730;2022-11-20T07:27:29;1.60;99.90
51982;DHT22;37998;53.416;6.730;2022-11-20T07:29:55;1.60;99.90
51982;DHT22;37998;53.416;6.730;2022-11-20T07:32:22;1.60;99.90
51982;DHT22;37998;53.416;6.730;2022-11-20T07:34:48;1.60;99.90
51982;DHT22;37998;53.416;6.730;2022-11-20T07:37:14;1.60;99.90
51982;DHT22;37998;53.416;6.730;2022-11-20T07:39:40;1.60;99.90
51982;DHT22;37998;53.416;6.730;2022-11-20T07:42:06;1.60;99.90
51982;DHT22;37998;53.416;6.730;2022-11-20T07:44:32;1.60;99.90
51982;DHT22;37998;53.416;6.730;2022-11-20T07:46:57;1.60;99.90
51982;DHT22;37998;53.416;6.730;2022-11-20T07:49:23;1.70;99.90
51982;DHT22;37998;53.416;6.730;2022-11-20T07:51:52;1.70;99.90
51982;DHT22;37998;53.416;6.730;2022-11-20T07:54:21;1.70;99.90
51982;DHT22;37998;53.416;6.730;2022-11-20T07:56:48;1.70;99.90
51982;DHT22;37998;53.416;6.730;2022-11-20T07:59:13;1.70;99.90
51982;DHT22;37998;53.416;6.730;2022-11-20T08:01:40;1.70;99.90
51982;DHT22;37998;53.416;6.730;2022-11-20T08:04:06;1.70;99.90
51982;DHT22;37998;53.416;6.730;2022-11-20T08:06:32;1.80;99.90
51982;DHT22;37998;53.416;6.730;2022-11-20T08:08:57;1.80;99.90
51982;DHT22;37998;53.416;6.730;2022-11-20T08:11:23;1.90;99.90
51982;DHT22;37998;53.416;6.730;2022-11-20T08:14:08;1.80;99.90
51982;DHT22;37998;53.416;6.730;2022-11-20T08:16:40;1.90;99.90
51982;DHT22;37998;53.416;6.730;2022-11-20T08:19:07;1.90;99.90
51982;DHT22;37998;53.416;6.730;2022-11-20T08:21:33;2.00;99.90
51982;DHT22;37998;53.416;6.730;2022-11-20T08:23:59;2.10;99.90
51982;DHT22;37998;53.416;6.730;2022-11-20T08:26:25;2.10;99.90
51982;DHT22;37998;53.416;6.730;2022-11-20T08:28:55;2.10;99.90
51982;DHT22;37998;53.416;6.730;2022-11-20T08:31:22;2.20;99.90
51982;DHT22;37998;53.416;6.730;2022-11-20T08:33:48;2.20;99.90
51982;DHT22;37998;53.416;6.730;2022-11-20T08:36:14;2.20;99.90
51982;DHT22;37998;53.416;6.730;2022-11-20T08:38:40;2.20;99.90
51982;DHT22;37998;53.416;6.730;2022-11-20T08:41:05;2.50;99.90
51982;DHT22;37998;53.416;6.730;2022-11-20T08:43:58;2.20;99.90
51982;DHT22;37998;53.416;6.730;2022-11-20T08:46:24;2.20;99.90
51982;DHT22;37998;53.416;6.730;2022-11-20T08:48:51;3.30;99.90
51982;DHT22;37998;53.416;6.730;2022-11-20T08:51:17;2.20;99.90
51982;DHT22;37998;53.416;6.730;2022-11-20T08:53:43;2.20;99.90
51982;DHT22;37998;53.416;6.730;2022-11-20T08:56:09;2.20;99.90
51982;DHT22;37998;53.416;6.730;2022-11-20T08:58:35;2.20;99.90
51982;DHT22;37998;53.416;6.730;2022-11-20T09:01:01;2.20;99.90
51982;DHT22;37998;53.416;6.730;2022-11-20T09:03:27;2.30;99.90
51982;DHT22;37998;53.416;6.730;2022-11-20T09:06:00;2.30;99.90
51982;DHT22;37998;53.416;6.730;2022-11-20T09:08:26;2.30;99.90
51982;DHT22;37998;53.416;6.730;2022-11-20T09:10:53;1.30;99.90
51982;DHT22;37998;53.416;6.730;2022-11-20T09:13:20;2.40;99.90
51982;DHT22;37998;53.416;6.730;2022-11-20T09:15:46;2.40;99.90
51982;DHT22;37998;53.416;6.730;2022-11-20T09:18:12;2.40;99.90
51982;DHT22;37998;53.416;6.730;2022-11-20T09:20:38;2.40;99.90
51982;DHT22;37998;53.416;6.730;2022-11-20T09:23:04;2.40;99.90
51982;DHT22;37998;53.416;6.730;2022-11-20T09:25:29;2.40;99.90
51982;DHT22;37998;53.416;6.730;2022-11-20T09:27:59;2.40;99.90
51982;DHT22;37998;53.416;6.730;2022-11-20T09:30:25;3.50;99.90
51982;DHT22;37998;53.416;6.730;2022-11-20T09:32:51;2.50;99.90
51982;DHT22;37998;53.416;6.730;2022-11-20T09:35:16;2.60;99.90
51982;DHT22;37998;53.416;6.730;2022-11-20T09:37:43;2.60;99.90
51982;DHT22;37998;53.416;6.730;2022-11-20T09:40:28;2.60;99.90
51982;DHT22;37998;53.416;6.730;2022-11-20T09:43:12;2.70;99.90
51982;DHT22;37998;53.416;6.730;2022-11-20T09:54:37;2.90;99.90
51982;DHT22;37998;53.416;6.730;2022-11-20T09:57:09;2.90;99.90
51982;DHT22;37998;53.416;6.730;2022-11-20T09:59:41;2.90;99.90
51982;DHT22;37998;53.416;6.730;2022-11-20T10:05:00;3.00;99.90
51982;DHT22;37998;53.416;6.730;2022-11-20T10:07:47;3.00;99.90
51982;DHT22;37998;53.416;6.730;2022-11-20T10:10:25;3.00;99.90
51982;DHT22;37998;53.416;6.730;2022-11-20T10:20:56;3.00;99.90
51982;DHT22;37998;53.416;6.730;2022-11-20T10:26:36;3.00;99.90
51982;DHT22;37998;53.416;6.730;2022-11-20T10:29:16;3.00;99.90
51982;DHT22;37998;53.416;6.730;2022-11-20T10:31:43;3.10;99.90
51982;DHT22;37998;53.416;6.730;2022-11-20T10:34:21;3.10;99.90
51982;DHT22;37998;53.416;6.730;2022-11-20T10:36:52;3.10;99.90
51982;DHT22;37998;53.416;6.730;2022-11-20T10:42:46;3.10;99.90
51982;DHT22;37998;53.416;6.730;2022-11-20T10:50:35;3.20;99.90
51982;DHT22;37998;53.416;6.730;2022-11-20T10:56:05;3.30;99.90
51982;DHT22;37998;53.416;6.730;2022-11-20T11:01:28;3.30;99.90
51982;DHT22;37998;53.416;6.730;2022-11-20T11:03:55;3.40;99.90
51982;DHT22;37998;53.416;6.730;2022-11-20T11:06:38;3.40;99.90
51982;DHT22;37998;53.416;6.730;2022-11-20T11:09:31;3.50;99.90
51982;DHT22;37998;53.416;6.730;2022-11-20T11:11:57;3.60;99.90
51982;DHT22;37998;53.416;6.730;2022-11-20T11:14:23;3.70;99.90
51982;DHT22;37998;53.416;6.730;2022-11-20T11:16:54;3.70;99.90
51982;DHT22;37998;53.416;6.730;2022-11-20T11:19:20;3.70;99.90
51982;DHT22;37998;53.416;6.730;2022-11-20T11:21:55;3.60;99.90
51982;DHT22;37998;53.416;6.730;2022-11-20T11:24:29;3.70;99.90
51982;DHT22;37998;53.416;6.730;2022-11-20T11:27:03;3.70;99.90
51982;DHT22;37998;53.416;6.730;2022-11-20T11:29:35;3.70;99.90
51982;DHT22;37998;53.416;6.730;2022-11-20T11:34:33;3.80;99.90
51982;DHT22;37998;53.416;6.730;2022-11-20T11:37:00;3.80;99.90
51982;DHT22;37998;53.416;6.730;2022-11-20T11:39:28;3.80;99.90
51982;DHT22;37998;53.416;6.730;2022-11-20T11:41:55;3.80;99.90
51982;DHT22;37998;53.416;6.730;2022-11-20T11:44:33;3.90;99.90
51982;DHT22;37998;53.416;6.730;2022-11-20T11:47:35;4.00;99.90
51982;DHT22;37998;53.416;6.730;2022-11-20T11:53:12;4.00;99.90
51982;DHT22;37998;53.416;6.730;2022-11-20T11:56:02;4.00;99.90
51982;DHT22;37998;53.416;6.730;2022-11-20T12:04:05;3.90;99.90
51982;DHT22;37998;53.416;6.730;2022-11-20T12:06:36;3.90;99.90
51982;DHT22;37998;53.416;6.730;2022-11-20T12:09:08;3.90;99.90
51982;DHT22;37998;53.416;6.730;2022-11-20T12:14:32;3.90;99.90
51982;DHT22;37998;53.416;6.730;2022-11-20T12:17:00;3.90;99.90
51982;DHT22;37998;53.416;6.730;2022-11-20T12:19:29;3.90;99.90
51982;DHT22;37998;53.416;6.730;2022-11-20T12:32:39;3.80;99.90
51982;DHT22;37998;53.416;6.730;2022-11-20T12:35:31;3.80;99.90
51982;DHT22;37998;53.416;6.730;2022-11-20T12:47:46;3.70;99.90
51982;DHT22;37998;53.416;6.730;2022-11-20T12:52:37;3.70;99.90
51982;DHT22;37998;53.416;6.730;2022-11-20T12:55:25;3.70;99.90
51982;DHT22;37998;53.416;6.730;2022-11-20T12:58:21;3.70;99.90
51982;DHT22;37998;53.416;6.730;2022-11-20T13:01:03;3.70;99.90
51982;DHT22;37998;53.416;6.730;2022-11-20T13:03:47;3.60;99.90
51982;DHT22;37998;53.416;6.730;2022-11-20T13:06:18;3.60;99.90
51982;DHT22;37998;53.416;6.730;2022-11-20T13:08:56;3.50;99.90
51982;DHT22;37998;53.416;6.730;2022-11-20T13:16:17;3.40;99.90
51982;DHT22;37998;53.416;6.730;2022-11-20T13:18:45;3.40;99.90
51982;DHT22;37998;53.416;6.730;2022-11-20T13:21:39;3.40;99.90
51982;DHT22;37998;53.416;6.730;2022-11-20T13:24:06;3.50;99.90
51982;DHT22;37998;53.416;6.730;2022-11-20T13:26:32;3.50;99.90
51982;DHT22;37998;53.416;6.730;2022-11-20T13:29:11;3.50;99.90
51982;DHT22;37998;53.416;6.730;2022-11-20T13:31:43;3.50;99.90
51982;DHT22;37998;53.416;6.730;2022-11-20T13:34:12;3.50;99.90
51982;DHT22;37998;53.416;6.730;2022-11-20T13:36:49;3.50;99.90
51982;DHT22;37998;53.416;6.730;2022-11-20T13:39:27;3.60;99.90
51982;DHT22;37998;53.416;6.730;2022-11-20T13:44:44;3.70;99.90
51982;DHT22;37998;53.416;6.730;2022-11-20T13:47:28;3.70;99.90
51982;DHT22;37998;53.416;6.730;2022-11-20T13:49:58;3.70;99.90
51982;DHT22;37998;53.416;6.730;2022-11-20T13:58:36;3.60;99.90
51982;DHT22;37998;53.416;6.730;2022-11-20T14:03:36;3.60;99.90
51982;DHT22;37998;53.416;6.730;2022-11-20T14:06:05;3.70;99.90
51982;DHT22;37998;53.416;6.730;2022-11-20T14:13:30;3.60;99.90
51982;DHT22;37998;53.416;6.730;2022-11-20T14:15:59;3.90;99.90
51982;DHT22;37998;53.416;6.730;2022-11-20T14:18:26;3.70;99.90
51982;DHT22;37998;53.416;6.730;2022-11-20T14:20:52;3.70;99.90
51982;DHT22;37998;53.416;6.730;2022-11-20T14:23:28;3.70;99.90
51982;DHT22;37998;53.416;6.730;2022-11-20T14:25:54;3.70;99.90
51982;DHT22;37998;53.416;6.730;2022-11-20T14:28:27;3.60;99.90
51982;DHT22;37998;53.416;6.730;2022-11-20T14:30:54;3.60;99.90
51982;DHT22;37998;53.416;6.730;2022-11-20T14:33:21;3.60;99.90
51982;DHT22;37998;53.416;6.730;2022-11-20T14:35:55;3.60;99.90
51982;DHT22;37998;53.416;6.730;2022-11-20T14:38:25;3.60;99.90
51982;DHT22;37998;53.416;6.730;2022-11-20T14:40:51;3.50;99.90
51982;DHT22;37998;53.416;6.730;2022-11-20T14:46:00;3.50;99.90
51982;DHT22;37998;53.416;6.730;2022-11-20T14:48:43;3.40;99.90
51982;DHT22;37998;53.416;6.730;2022-11-20T14:51:34;3.40;99.90
51982;DHT22;37998;53.416;6.730;2022-11-20T14:54:17;3.30;99.90
51982;DHT22;37998;53.416;6.730;2022-11-20T14:56:57;3.30;99.90
51982;DHT22;37998;53.416;6.730;2022-11-20T14:59:28;3.30;99.90
51982;DHT22;37998;53.416;6.730;2022-11-20T15:02:00;3.20;99.90
51982;DHT22;37998;53.416;6.730;2022-11-20T15:04:26;3.20;99.90
51982;DHT22;37998;53.416;6.730;2022-11-20T15:06:54;3.20;99.90
51982;DHT22;37998;53.416;6.730;2022-11-20T15:09:21;3.20;99.90
51982;DHT22;37998;53.416;6.730;2022-11-20T15:11:58;3.30;99.90
51982;DHT22;37998;53.416;6.730;2022-11-20T15:14:27;3.20;99.90
51982;DHT22;37998;53.416;6.730;2022-11-20T15:16:53;3.20;99.90
51982;DHT22;37998;53.416;6.730;2022-11-20T15:19:22;3.20;99.90
51982;DHT22;37998;53.416;6.730;2022-11-20T15:21:48;3.20;99.90
51982;DHT22;37998;53.416;6.730;2022-11-20T15:24:14;3.10;99.90
51982;DHT22;37998;53.416;6.730;2022-11-20T15:26:40;3.10;99.90
51982;DHT22;37998;53.416;6.730;2022-11-20T15:29:15;3.10;99.90
51982;DHT22;37998;53.416;6.730;2022-11-20T15:31:44;3.10;99.90
51982;DHT22;37998;53.416;6.730;2022-11-20T15:34:16;3.10;99.90
51982;DHT22;37998;53.416;6.730;2022-11-20T15:36:43;3.10;99.90
51982;DHT22;37998;53.416;6.730;2022-11-20T15:39:09;3.10;99.90
51982;DHT22;37998;53.416;6.730;2022-11-20T15:41:37;3.00;99.90
51982;DHT22;37998;53.416;6.730;2022-11-20T15:44:04;3.00;99.90
51982;DHT22;37998;53.416;6.730;2022-11-20T15:46:37;3.00;99.90
51982;DHT22;37998;53.416;6.730;2022-11-20T15:49:04;3.00;99.90
51982;DHT22;37998;53.416;6.730;2022-11-20T15:51:38;3.00;99.90
51982;DHT22;37998;53.416;6.730;2022-11-20T15:56:35;2.90;99.90
51982;DHT22;37998;53.416;6.730;2022-11-20T15:59:01;2.80;99.90
51982;DHT22;37998;53.416;6.730;2022-11-20T16:01:26;2.80;99.90
51982;DHT22;37998;53.416;6.730;2022-11-20T16:03:52;2.80;99.90
51982;DHT22;37998;53.416;6.730;2022-11-20T16:06:17;2.80;99.90
51982;DHT22;37998;53.416;6.730;2022-11-20T16:08:43;2.70;99.90
51982;DHT22;37998;53.416;6.730;2022-11-20T16:11:13;2.70;99.90
51982;DHT22;37998;53.416;6.730;2022-11-20T16:13:39;2.70;99.90
51982;DHT22;37998;53.416;6.730;2022-11-20T16:16:27;2.60;99.90
51982;DHT22;37998;53.416;6.730;2022-11-20T16:18:54;2.60;99.90
51982;DHT22;37998;53.416;6.730;2022-11-20T16:21:20;2.50;99.90
51982;DHT22;37998;53.416;6.730;2022-11-20T16:23:46;2.50;99.90
51982;DHT22;37998;53.416;6.730;2022-11-20T16:26:14;3.00;99.90
51982;DHT22;37998;53.416;6.730;2022-11-20T16:28:41;2.50;99.90
51982;DHT22;37998;53.416;6.730;2022-11-20T16:31:17;2.50;99.90
51982;DHT22;37998;53.416;6.730;2022-11-20T16:33:48;2.50;99.90
51982;DHT22;37998;53.416;6.730;2022-11-20T16:36:14;2.50;99.90
51982;DHT22;37998;53.416;6.730;2022-11-20T16:38:41;2.50;99.90
51982;DHT22;37998;53.416;6.730;2022-11-20T16:41:07;2.50;99.90
51982;DHT22;37998;53.416;6.730;2022-11-20T16:43:59;2.50;99.90
51982;DHT22;37998;53.416;6.730;2022-11-20T16:46:30;2.50;99.90
51982;DHT22;37998;53.416;6.730;2022-11-20T16:49:02;2.60;99.90
51982;DHT22;37998;53.416;6.730;2022-11-20T16:51:29;2.60;99.90
51982;DHT22;37998;53.416;6.730;2022-11-20T16:53:55;2.60;99.90
51982;DHT22;37998;53.416;6.730;2022-11-20T16:56:25;2.60;99.90
51982;DHT22;37998;53.416;6.730;2022-11-20T16:58:53;2.60;99.90
51982;DHT22;37998;53.416;6.730;2022-11-20T17:01:21;2.60;99.90
51982;DHT22;37998;53.416;6.730;2022-11-20T17:03:59;2.60;99.90
51982;DHT22;37998;53.416;6.730;2022-11-20T17:06:31;2.70;99.90
51982;DHT22;37998;53.416;6.730;2022-11-20T17:08:57;2.70;99.90
51982;DHT22;37998;53.416;6.730;2022-11-20T17:11:24;2.70;99.90
51982;DHT22;37998;53.416;6.730;2022-11-20T17:13:50;2.70;99.90
51982;DHT22;37998;53.416;6.730;2022-11-20T17:16:18;2.70;99.90
51982;DHT22;37998;53.416;6.730;2022-11-20T17:18:45;2.70;99.90
51982;DHT22;37998;53.416;6.730;2022-11-20T17:21:11;2.60;99.90
51982;DHT22;37998;53.416;6.730;2022-11-20T17:23:42;2.60;99.90
51982;DHT22;37998;53.416;6.730;2022-11-20T17:26:09;2.60;99.90
51982;DHT22;37998;53.416;6.730;2022-11-20T17:28:37;2.60;99.90
51982;DHT22;37998;53.416;6.730;2022-11-20T17:31:08;2.60;99.90
51982;DHT22;37998;53.416;6.730;2022-11-20T17:33:35;2.60;99.90
51982;DHT22;37998;53.416;6.730;2022-11-20T17:36:02;4.20;99.90
51982;DHT22;37998;53.416;6.730;2022-11-20T17:38:28;2.50;99.90